createdAt,value
2022-09-01T00:00:24.291Z,1014.63
2022-09-01T00:00:41.388Z,1014.73
2022-09-01T00:01:13.368Z,1014.73
2022-09-01T00:01:34.623Z,1014.73
2022-09-01T00:02:00.974Z,1014.73
2022-09-01T00:02:32.426Z,1014.73
2022-09-01T00:03:04.154Z,1014.83
2022-09-01T00:03:34.660Z,1014.73
2022-09-01T00:03:52.627Z,1014.73
2022-09-01T00:04:24.124Z,1014.73
2022-09-01T00:04:41.251Z,1014.73
2022-09-01T00:05:12.404Z,1014.73
2022-09-01T00:05:34.579Z,1014.83
2022-09-01T00:06:00.199Z,1014.83
2022-09-01T00:06:32.348Z,1014.83
2022-09-01T00:07:04.158Z,1014.73
2022-09-01T00:07:34.653Z,1014.73
2022-09-01T00:07:52.609Z,1014.73
2022-09-01T00:08:24.198Z,1014.73
2022-09-01T00:08:41.331Z,1014.73
2022-09-01T00:09:12.390Z,1014.73
2022-09-01T00:09:34.619Z,1014.63
2022-09-01T00:10:00.173Z,1014.63
2022-09-01T00:10:32.425Z,1014.63
2022-09-01T00:11:04.199Z,1014.73
2022-09-01T00:11:36.195Z,1014.93
2022-09-01T00:12:08.085Z,1014.93
2022-09-01T00:12:35.560Z,1014.93
2022-09-01T00:12:56.269Z,1014.93
2022-09-01T00:13:28.164Z,1014.93
2022-09-01T00:14:00.068Z,1014.83
2022-09-01T00:14:32.196Z,1014.83
2022-09-01T00:15:04.435Z,1014.83
2022-09-01T00:15:34.596Z,1014.73
2022-09-01T00:15:52.302Z,1014.73
2022-09-01T00:16:24.615Z,1014.73
2022-09-01T00:16:42.296Z,1014.73
2022-09-01T00:17:12.400Z,1014.73
2022-09-01T00:17:34.584Z,1014.63
2022-09-01T00:18:00.125Z,1014.63
2022-09-01T00:18:32.203Z,1014.63
2022-09-01T00:19:04.106Z,1014.83
2022-09-01T00:19:35.655Z,1014.73
2022-09-01T00:20:08.212Z,1014.73
2022-09-01T00:20:36.433Z,1014.63
2022-09-01T00:20:56.032Z,1014.63
2022-09-01T00:21:28.742Z,1014.63
2022-09-01T00:22:00.130Z,1014.73
2022-09-01T00:22:32.590Z,1014.73
2022-09-01T00:23:04.109Z,1014.83
2022-09-01T00:23:34.628Z,1014.83
2022-09-01T00:23:52.361Z,1014.83
2022-09-01T00:24:26.512Z,1014.83
2022-09-01T00:24:42.329Z,1014.83
2022-09-01T00:25:12.146Z,1014.83
2022-09-01T00:25:36.426Z,1014.83
2022-09-01T00:26:00.107Z,1014.83
2022-09-01T00:26:33.435Z,1014.83
2022-09-01T00:27:04.609Z,1014.73
2022-09-01T00:27:35.011Z,1014.73
2022-09-01T00:27:52.168Z,1014.73
2022-09-01T00:28:24.075Z,1014.73
2022-09-01T00:28:41.202Z,1015.03
2022-09-01T00:29:13.315Z,1015.03
2022-09-01T00:29:34.579Z,1014.73
2022-09-01T00:30:00.216Z,1014.73
2022-09-01T00:30:32.411Z,1014.73
2022-09-01T00:31:04.347Z,1014.73
2022-09-01T00:31:35.331Z,1014.73
2022-09-01T00:31:52.979Z,1014.73
2022-09-01T00:32:25.054Z,1014.73
2022-09-01T00:32:42.446Z,1014.93
2022-09-01T00:33:12.212Z,1014.93
2022-09-01T00:33:34.584Z,1014.73
2022-09-01T00:34:00.141Z,1014.73
2022-09-01T00:34:32.256Z,1014.73
2022-09-01T00:35:05.005Z,1014.73
2022-09-01T00:35:37.310Z,1014.73
2022-09-01T00:35:52.685Z,1014.73
2022-09-01T00:36:24.045Z,1014.73
2022-09-01T00:36:42.074Z,1014.42
2022-09-01T00:37:12.601Z,1014.42
2022-09-01T00:37:35.595Z,1014.53
2022-09-01T00:38:01.058Z,1014.53
2022-09-01T00:38:32.226Z,1014.53
2022-09-01T00:39:04.109Z,1014.73
2022-09-01T00:39:34.605Z,1014.73
2022-09-01T00:39:52.329Z,1014.73
2022-09-01T00:40:25.317Z,1014.73
2022-09-01T00:40:42.881Z,1014.73
2022-09-01T00:41:12.289Z,1014.73
2022-09-01T00:41:34.756Z,1014.63
2022-09-01T00:42:00.083Z,1014.63
2022-09-01T00:42:32.437Z,1014.63
2022-09-01T00:43:04.210Z,1014.83
2022-09-01T00:43:34.564Z,1014.63
2022-09-01T00:43:52.527Z,1014.63
2022-09-01T00:44:24.685Z,1014.63
2022-09-01T00:44:41.854Z,1014.73
2022-09-01T00:45:12.400Z,1014.73
2022-09-01T00:45:35.832Z,1014.63
2022-09-01T00:46:00.012Z,1014.63
2022-09-01T00:46:32.193Z,1014.63
2022-09-01T00:47:04.817Z,1014.63
2022-09-01T00:47:34.839Z,1014.63
2022-09-01T00:47:52.406Z,1014.63
2022-09-01T00:48:25.673Z,1014.63
2022-09-01T00:48:57.933Z,1014.53
2022-09-01T00:49:28.503Z,1014.53
2022-09-01T00:50:00.790Z,1014.53
2022-09-01T00:50:32.125Z,1014.53
2022-09-01T00:51:04.177Z,1014.53
2022-09-01T00:51:34.645Z,1014.73
2022-09-01T00:51:52.190Z,1014.73
2022-09-01T00:52:24.006Z,1014.73
2022-09-01T00:52:41.085Z,1014.63
2022-09-01T00:53:13.228Z,1014.63
2022-09-01T00:53:35.923Z,1014.73
2022-09-01T00:54:01.667Z,1014.73
2022-09-01T00:54:32.173Z,1014.73
2022-09-01T00:55:04.066Z,1014.42
2022-09-01T00:55:35.455Z,1014.53
2022-09-01T00:55:51.889Z,1014.53
2022-09-01T00:56:23.979Z,1014.53
2022-09-01T00:56:42.194Z,1014.73
2022-09-01T00:57:13.740Z,1014.73
2022-09-01T00:57:34.608Z,1014.53
2022-09-01T00:58:00.143Z,1014.53
2022-09-01T00:58:32.316Z,1014.53
2022-09-01T00:59:04.127Z,1014.53
2022-09-01T00:59:35.474Z,1014.73
2022-09-01T00:59:52.168Z,1014.73
2022-09-01T01:00:24.113Z,1014.73
2022-09-01T01:00:43.711Z,1014.32
2022-09-01T01:01:12.097Z,1014.32
2022-09-01T01:01:34.685Z,1014.83
2022-09-01T01:02:00.111Z,1014.83
2022-09-01T01:02:32.299Z,1014.83
2022-09-01T01:03:04.099Z,1014.63
2022-09-01T01:03:34.585Z,1014.22
2022-09-01T01:03:52.128Z,1014.22
2022-09-01T01:04:24.013Z,1014.22
2022-09-01T01:04:41.159Z,1014.53
2022-09-01T01:05:14.370Z,1014.53
2022-09-01T01:05:34.683Z,1014.73
2022-09-01T01:06:00.091Z,1014.73
2022-09-01T01:06:33.525Z,1014.73
2022-09-01T01:07:04.068Z,1014.63
2022-09-01T01:07:36.599Z,1014.73
2022-09-01T01:08:08.061Z,1014.73
2022-09-01T01:08:34.565Z,1014.63
2022-09-01T01:08:56.073Z,1014.63
2022-09-01T01:09:28.083Z,1014.63
2022-09-01T01:10:00.040Z,1014.32
2022-09-01T01:10:32.231Z,1014.32
2022-09-01T01:11:04.334Z,1014.53
2022-09-01T01:11:34.632Z,1014.42
2022-09-01T01:11:52.007Z,1014.42
2022-09-01T01:12:24.597Z,1014.42
2022-09-01T01:12:56.153Z,1014.63
2022-09-01T01:13:28.155Z,1014.63
2022-09-01T01:14:00.125Z,1014.53
2022-09-01T01:14:32.508Z,1014.53
2022-09-01T01:15:04.301Z,1014.42
2022-09-01T01:15:35.675Z,1014.73
2022-09-01T01:16:09.031Z,1014.73
2022-09-01T01:16:34.801Z,1014.42
2022-09-01T01:16:56.234Z,1014.42
2022-09-01T01:17:28.870Z,1014.42
2022-09-01T01:18:01.308Z,1014.63
2022-09-01T01:18:32.544Z,1014.63
2022-09-01T01:19:04.169Z,1014.53
2022-09-01T01:22:33.177Z,1014.73
2022-09-01T01:23:04.195Z,1014.42
2022-09-01T01:23:35.897Z,1014.73
2022-09-01T01:24:08.031Z,1014.73
2022-09-01T01:24:34.651Z,1014.42
2022-09-01T01:24:55.969Z,1014.42
2022-09-01T01:25:29.044Z,1014.42
2022-09-01T01:26:00.135Z,1014.53
2022-09-01T01:26:32.081Z,1014.53
2022-09-01T01:27:04.447Z,1014.42
2022-09-01T01:27:35.758Z,1014.42
2022-09-01T01:27:52.089Z,1014.42
2022-09-01T01:28:23.982Z,1014.42
2022-09-01T01:28:41.207Z,1014.63
2022-09-01T01:29:12.231Z,1014.63
2022-09-01T01:29:34.634Z,1014.53
2022-09-01T01:30:00.130Z,1014.53
2022-09-01T01:30:33.866Z,1014.53
2022-09-01T01:31:04.312Z,1014.53
2022-09-01T01:31:34.750Z,1014.42
2022-09-01T01:31:52.048Z,1014.42
2022-09-01T01:32:24.216Z,1014.42
2022-09-01T01:32:43.549Z,1014.63
2022-09-01T01:33:12.029Z,1014.63
2022-09-01T01:33:34.613Z,1014.63
2022-09-01T01:34:02.341Z,1014.63
2022-09-01T01:34:32.052Z,1014.63
2022-09-01T01:35:04.060Z,1014.42
2022-09-01T01:35:34.640Z,1014.63
2022-09-01T01:35:51.964Z,1014.63
2022-09-01T01:36:24.355Z,1014.63
2022-09-01T01:36:41.115Z,1014.42
2022-09-01T01:37:11.976Z,1014.42
2022-09-01T01:37:35.496Z,1014.32
2022-09-01T01:38:00.054Z,1014.32
2022-09-01T01:38:33.562Z,1014.32
2022-09-01T01:39:04.080Z,1014.53
2022-09-01T01:39:34.565Z,1014.53
2022-09-01T01:39:52.009Z,1014.53
2022-09-01T01:40:24.092Z,1014.53
2022-09-01T01:40:42.082Z,1014.63
2022-09-01T01:41:12.031Z,1014.63
2022-09-01T01:41:34.599Z,1014.63
2022-09-01T01:42:00.175Z,1014.63
2022-09-01T01:42:32.154Z,1014.63
2022-09-01T01:43:04.742Z,1014.32
2022-09-01T01:43:36.829Z,1014.53
2022-09-01T01:44:08.040Z,1014.53
2022-09-01T01:44:34.617Z,1014.32
2022-09-01T01:44:57.044Z,1014.32
2022-09-01T01:45:28.102Z,1014.32
2022-09-01T01:46:00.311Z,1014.42
2022-09-01T01:46:32.101Z,1014.42
2022-09-01T01:47:04.124Z,1014.32
2022-09-01T01:47:34.563Z,1014.53
2022-09-01T01:47:51.972Z,1014.53
2022-09-01T01:48:24.014Z,1014.53
2022-09-01T01:48:41.905Z,1014.53
2022-09-01T01:49:12.056Z,1014.53
2022-09-01T01:49:34.615Z,1014.53
2022-09-01T01:50:00.242Z,1014.53
2022-09-01T01:50:32.040Z,1014.53
2022-09-01T01:51:04.831Z,1014.42
2022-09-01T01:51:36.624Z,1014.22
2022-09-01T01:52:08.114Z,1014.22
2022-09-01T01:52:35.200Z,1014.42
2022-09-01T01:52:58.604Z,1014.42
2022-09-01T01:53:28.205Z,1014.42
2022-09-01T01:54:00.242Z,1014.42
2022-09-01T01:54:32.031Z,1014.42
2022-09-01T01:55:05.291Z,1014.42
2022-09-01T01:55:37.618Z,1014.53
2022-09-01T01:56:07.967Z,1014.53
2022-09-01T01:56:34.638Z,1014.53
2022-09-01T01:56:55.991Z,1014.53
2022-09-01T01:57:29.130Z,1014.53
2022-09-01T01:58:00.239Z,1014.53
2022-09-01T01:58:33.524Z,1014.53
2022-09-01T01:59:04.149Z,1014.53
2022-09-01T01:59:35.282Z,1014.53
2022-09-01T01:59:51.910Z,1014.53
2022-09-01T02:00:29.992Z,1014.53
2022-09-01T02:00:41.583Z,1014.32
2022-09-01T02:01:12.139Z,1014.32
2022-09-01T02:01:34.657Z,1014.32
2022-09-01T02:02:00.139Z,1014.32
2022-09-01T02:02:33.770Z,1014.32
2022-09-01T02:03:04.075Z,1014.42
2022-09-01T02:03:34.559Z,1014.42
2022-09-01T02:03:51.963Z,1014.42
2022-09-01T02:04:25.148Z,1014.42
2022-09-01T02:04:43.781Z,1014.53
2022-09-01T02:05:11.932Z,1014.53
2022-09-01T02:05:36.849Z,1014.53
2022-09-01T02:05:59.995Z,1014.53
2022-09-01T02:06:33.749Z,1014.53
2022-09-01T02:07:04.202Z,1014.22
2022-09-01T02:07:38.190Z,1014.53
2022-09-01T02:07:51.973Z,1014.53
2022-09-01T02:08:25.250Z,1014.53
2022-09-01T02:08:42.626Z,1014.42
2022-09-01T02:09:12.070Z,1014.42
2022-09-01T02:09:34.881Z,1014.32
2022-09-01T02:10:00.048Z,1014.32
2022-09-01T02:10:32.050Z,1014.32
2022-09-01T02:11:04.435Z,1014.42
2022-09-01T02:11:34.861Z,1014.53
2022-09-01T02:11:52.002Z,1014.53
2022-09-01T02:12:23.992Z,1014.53
2022-09-01T02:12:41.108Z,1014.42
2022-09-01T02:13:12.403Z,1014.42
2022-09-01T02:13:34.706Z,1014.42
2022-09-01T02:14:00.348Z,1014.42
2022-09-01T02:14:32.657Z,1014.42
2022-09-01T02:15:04.107Z,1014.53
2022-09-01T02:15:34.575Z,1014.53
2022-09-01T02:15:52.034Z,1014.53
2022-09-01T02:16:24.055Z,1014.53
2022-09-01T02:16:41.784Z,1014.42
2022-09-01T02:17:12.063Z,1014.42
2022-09-01T02:17:35.105Z,1014.42
2022-09-01T02:17:59.987Z,1014.42
2022-09-01T02:18:32.947Z,1014.42
2022-09-01T02:19:04.062Z,1014.42
2022-09-01T02:19:37.030Z,1014.32
2022-09-01T02:20:08.453Z,1014.32
2022-09-01T02:20:34.564Z,1014.53
2022-09-01T02:20:55.946Z,1014.53
2022-09-01T02:21:28.061Z,1014.53
2022-09-01T02:22:01.408Z,1014.63
2022-09-01T02:22:33.388Z,1014.63
2022-09-01T02:23:05.926Z,1014.32
2022-09-01T02:23:36.871Z,1014.63
2022-09-01T02:24:07.929Z,1014.63
2022-09-01T02:24:36.071Z,1014.53
2022-09-01T02:24:55.971Z,1014.53
2022-09-01T02:25:27.956Z,1014.53
2022-09-01T02:26:15.648Z,1014.53
2022-09-01T02:26:31.992Z,1014.53
2022-09-01T02:27:05.101Z,1014.32
2022-09-01T02:27:35.658Z,1014.53
2022-09-01T02:28:09.147Z,1014.53
2022-09-01T02:28:35.561Z,1014.63
2022-09-01T02:28:56.230Z,1014.63
2022-09-01T02:29:27.999Z,1014.63
2022-09-01T02:30:00.007Z,1014.42
2022-09-01T02:30:33.627Z,1014.42
2022-09-01T02:31:04.138Z,1014.53
2022-09-01T02:31:35.108Z,1014.42
2022-09-01T02:31:52.098Z,1014.42
2022-09-01T02:32:24.025Z,1014.42
2022-09-01T02:32:41.202Z,1014.42
2022-09-01T02:33:13.274Z,1014.42
2022-09-01T02:33:35.446Z,1014.53
2022-09-01T02:34:01.239Z,1014.53
2022-09-01T02:34:32.046Z,1014.53
2022-09-01T02:35:04.166Z,1014.63
2022-09-01T02:35:34.566Z,1014.53
2022-09-01T02:35:52.000Z,1014.53
2022-09-01T02:36:24.065Z,1014.53
2022-09-01T02:36:42.393Z,1014.32
2022-09-01T02:37:13.470Z,1014.32
2022-09-01T02:37:34.647Z,1014.53
2022-09-01T02:38:00.277Z,1014.53
2022-09-01T02:38:32.118Z,1014.53
2022-09-01T02:39:04.590Z,1014.63
2022-09-01T02:39:34.689Z,1014.53
2022-09-01T02:39:51.865Z,1014.53
2022-09-01T02:40:24.235Z,1014.53
2022-09-01T02:40:41.331Z,1014.53
2022-09-01T02:41:12.078Z,1014.53
2022-09-01T02:41:34.987Z,1014.42
2022-09-01T02:41:59.965Z,1014.42
2022-09-01T02:42:32.097Z,1014.42
2022-09-01T02:43:04.079Z,1014.32
2022-09-01T02:43:36.231Z,1014.32
2022-09-01T02:44:08.747Z,1014.32
2022-09-01T02:44:39.506Z,1014.42
2022-09-01T02:44:56.004Z,1014.42
2022-09-01T02:45:27.947Z,1014.42
2022-09-01T02:45:59.957Z,1014.42
2022-09-01T02:46:33.275Z,1014.42
2022-09-01T02:47:04.442Z,1014.42
2022-09-01T02:47:35.387Z,1014.22
2022-09-01T02:47:51.964Z,1014.22
2022-09-01T02:48:24.063Z,1014.22
2022-09-01T02:48:41.072Z,1014.42
2022-09-01T02:49:30.517Z,1014.42
2022-09-01T02:50:04.558Z,1014.32
2022-09-01T02:50:37.806Z,1014.32
2022-09-01T02:51:10.718Z,1014.32
2022-09-01T02:51:44.076Z,1014.32
2022-09-01T02:52:19.729Z,1014.32
2022-09-01T02:52:43.777Z,1014.42
2022-09-01T02:53:18.373Z,1014.42
2022-09-01T02:53:36.011Z,1014.42
2022-09-01T02:54:09.181Z,1014.42
2022-09-01T02:54:34.221Z,1014.42
2022-09-01T02:55:19.659Z,1014.32
2022-09-01T02:55:51.984Z,1014.32
2022-09-01T02:56:25.061Z,1014.32
2022-09-01T02:56:41.518Z,1014.53
2022-09-01T02:57:13.176Z,1014.53
2022-09-01T02:57:36.060Z,1014.53
2022-09-01T02:57:59.967Z,1014.53
2022-09-01T02:58:31.973Z,1014.53
2022-09-01T02:59:04.095Z,1014.42
2022-09-01T02:59:34.723Z,1014.53
2022-09-01T02:59:51.952Z,1014.53
2022-09-01T03:00:24.058Z,1014.53
2022-09-01T03:00:42.004Z,1014.63
2022-09-01T03:01:12.005Z,1014.63
2022-09-01T03:01:34.743Z,1014.42
2022-09-01T03:01:59.960Z,1014.42
2022-09-01T03:02:32.057Z,1014.42
2022-09-01T03:03:04.105Z,1014.42
2022-09-01T03:03:34.643Z,1014.53
2022-09-01T03:03:53.825Z,1014.53
2022-09-01T03:04:24.116Z,1014.53
2022-09-01T03:04:42.643Z,1014.42
2022-09-01T03:05:12.034Z,1014.42
2022-09-01T03:05:35.603Z,1014.32
2022-09-01T03:05:59.929Z,1014.32
2022-09-01T03:06:32.114Z,1014.32
2022-09-01T03:07:04.070Z,1014.42
2022-09-01T03:07:34.661Z,1014.53
2022-09-01T03:07:53.919Z,1014.53
2022-09-01T03:08:23.988Z,1014.53
2022-09-01T03:08:41.754Z,1014.42
2022-09-01T03:09:11.956Z,1014.42
2022-09-01T03:09:36.377Z,1014.22
2022-09-01T03:09:59.899Z,1014.22
2022-09-01T03:10:31.983Z,1014.22
2022-09-01T03:11:04.088Z,1014.32
2022-09-01T03:11:34.651Z,1014.32
2022-09-01T03:11:51.944Z,1014.32
2022-09-01T03:12:24.000Z,1014.32
2022-09-01T03:12:41.068Z,1014.22
2022-09-01T03:13:11.962Z,1014.22
2022-09-01T03:13:34.609Z,1014.32
2022-09-01T03:14:00.703Z,1014.32
2022-09-01T03:14:34.558Z,1014.32
2022-09-01T03:15:04.645Z,1014.32
2022-09-01T03:15:35.979Z,1014.22
2022-09-01T03:16:07.936Z,1014.22
2022-09-01T03:16:36.585Z,1014.32
2022-09-01T03:16:56.108Z,1014.32
2022-09-01T03:17:28.001Z,1014.32
2022-09-01T03:17:59.934Z,1014.32
2022-09-01T03:18:31.962Z,1014.32
2022-09-01T03:19:05.554Z,1014.42
2022-09-01T03:19:35.728Z,1014.42
2022-09-01T03:20:08.191Z,1014.42
2022-09-01T03:20:34.651Z,1014.42
2022-09-01T03:20:55.896Z,1014.42
2022-09-01T03:21:29.045Z,1014.42
2022-09-01T03:21:59.975Z,1014.42
2022-09-01T03:22:33.194Z,1014.42
2022-09-01T03:23:04.118Z,1014.42
2022-09-01T03:23:35.752Z,1014.32
2022-09-01T03:24:08.643Z,1014.32
2022-09-01T03:24:37.231Z,1014.32
2022-09-01T03:24:56.067Z,1014.32
2022-09-01T03:25:28.061Z,1014.32
2022-09-01T03:26:00.063Z,1014.42
2022-09-01T03:26:32.079Z,1014.42
2022-09-01T03:27:04.664Z,1014.32
2022-09-01T03:27:34.910Z,1014.32
2022-09-01T03:28:07.916Z,1014.32
2022-09-01T03:28:34.673Z,1014.42
2022-09-01T03:28:56.031Z,1014.42
2022-09-01T03:29:27.973Z,1014.42
2022-09-01T03:29:59.951Z,1014.42
2022-09-01T03:30:33.887Z,1014.42
2022-09-01T03:31:04.298Z,1014.32
2022-09-01T03:31:34.758Z,1014.32
2022-09-01T03:31:52.059Z,1014.32
2022-09-01T03:32:24.047Z,1014.32
2022-09-01T03:32:40.962Z,1014.32
2022-09-01T03:33:11.996Z,1014.32
2022-09-01T03:33:34.804Z,1014.42
2022-09-01T03:34:00.091Z,1014.42
2022-09-01T03:34:31.978Z,1014.42
2022-09-01T03:35:04.190Z,1014.42
2022-09-01T03:35:35.554Z,1014.53
2022-09-01T03:36:14.725Z,1014.53
2022-09-01T03:36:36.235Z,1014.42
2022-09-01T03:36:55.926Z,1014.42
2022-09-01T03:37:27.871Z,1014.42
2022-09-01T03:38:00.237Z,1014.22
2022-09-01T03:38:33.890Z,1014.22
2022-09-01T03:39:20.198Z,1014.53
2022-09-01T03:39:56.391Z,1014.53
2022-09-01T03:40:24.118Z,1014.53
2022-09-01T03:40:41.166Z,1014.12
2022-09-01T03:41:11.989Z,1014.12
2022-09-01T03:41:34.733Z,1014.42
2022-09-01T03:41:59.919Z,1014.42
2022-09-01T03:42:31.963Z,1014.42
2022-09-01T03:43:06.210Z,1014.22
2022-09-01T03:43:36.780Z,1014.22
2022-09-01T03:44:09.056Z,1014.22
2022-09-01T03:44:34.698Z,1014.32
2022-09-01T03:44:56.860Z,1014.32
2022-09-01T03:45:29.131Z,1014.32
2022-09-01T03:46:00.002Z,1014.42
2022-09-01T03:46:36.349Z,1014.42
2022-09-01T03:47:04.006Z,1014.53
2022-09-01T03:47:35.605Z,1014.42
2022-09-01T03:48:07.925Z,1014.42
2022-09-01T03:48:34.680Z,1014.32
2022-09-01T03:48:55.898Z,1014.32
2022-09-01T03:49:28.716Z,1014.32
2022-09-01T03:50:00.973Z,1014.53
2022-09-01T03:50:31.983Z,1014.53
2022-09-01T03:51:04.153Z,1014.32
2022-09-01T03:51:34.719Z,1014.42
2022-09-01T03:51:52.164Z,1014.42
2022-09-01T03:52:24.322Z,1014.42
2022-09-01T03:52:41.026Z,1014.32
2022-09-01T03:53:11.938Z,1014.32
2022-09-01T03:53:34.728Z,1014.53
2022-09-01T03:53:59.883Z,1014.53
2022-09-01T03:54:31.978Z,1014.53
2022-09-01T03:55:04.176Z,1014.63
2022-09-01T03:55:34.675Z,1014.32
2022-09-01T03:55:52.064Z,1014.32
2022-09-01T03:56:24.114Z,1014.32
2022-09-01T03:56:41.163Z,1014.53
2022-09-01T03:57:11.871Z,1014.53
2022-09-01T03:57:35.535Z,1014.42
2022-09-01T03:58:00.029Z,1014.42
2022-09-01T03:58:31.886Z,1014.42
2022-09-01T03:59:04.672Z,1014.32
2022-09-01T03:59:35.756Z,1014.53
2022-09-01T04:00:08.293Z,1014.53
2022-09-01T04:00:34.759Z,1014.42
2022-09-01T04:00:56.168Z,1014.42
2022-09-01T04:01:28.326Z,1014.42
2022-09-01T04:01:59.993Z,1014.53
2022-09-01T04:02:32.251Z,1014.53
2022-09-01T04:03:04.221Z,1014.53
2022-09-01T04:03:34.659Z,1014.42
2022-09-01T04:03:51.926Z,1014.42
2022-09-01T04:04:24.060Z,1014.42
2022-09-01T04:04:41.029Z,1014.42
2022-09-01T04:05:12.009Z,1014.42
2022-09-01T04:05:35.453Z,1014.73
2022-09-01T04:06:01.055Z,1014.73
2022-09-01T04:06:33.132Z,1014.73
2022-09-01T04:07:04.239Z,1014.42
2022-09-01T04:07:34.746Z,1014.63
2022-09-01T04:07:52.064Z,1014.63
2022-09-01T04:08:24.042Z,1014.63
2022-09-01T04:08:41.044Z,1014.53
2022-09-01T04:09:12.888Z,1014.53
2022-09-01T04:09:34.729Z,1014.42
2022-09-01T04:09:59.928Z,1014.42
2022-09-01T04:10:32.280Z,1014.42
2022-09-01T04:11:04.138Z,1014.73
2022-09-01T04:11:34.758Z,1014.63
2022-09-01T04:11:54.189Z,1014.63
2022-09-01T04:12:24.177Z,1014.63
2022-09-01T04:12:41.587Z,1014.53
2022-09-01T04:13:11.908Z,1014.53
2022-09-01T04:13:34.693Z,1014.53
2022-09-01T04:14:00.984Z,1014.53
2022-09-01T04:14:32.153Z,1014.53
2022-09-01T04:15:04.283Z,1014.42
2022-09-01T04:15:36.019Z,1014.53
2022-09-01T04:16:08.043Z,1014.53
2022-09-01T04:16:36.065Z,1014.63
2022-09-01T04:16:56.151Z,1014.63
2022-09-01T04:17:30.529Z,1014.63
2022-09-01T04:18:01.002Z,1014.73
2022-09-01T04:18:32.047Z,1014.73
2022-09-01T04:19:04.281Z,1014.32
2022-09-01T04:19:34.759Z,1014.53
2022-09-01T04:19:51.988Z,1014.53
2022-09-01T04:20:24.150Z,1014.53
2022-09-01T04:20:41.751Z,1014.53
2022-09-01T04:21:12.198Z,1014.53
2022-09-01T04:21:34.752Z,1014.53
2022-09-01T04:22:00.957Z,1014.53
2022-09-01T04:22:36.921Z,1014.53
2022-09-01T04:23:04.327Z,1014.63
2022-09-01T04:23:34.689Z,1014.53
2022-09-01T04:23:52.403Z,1014.53
2022-09-01T04:24:24.500Z,1014.53
2022-09-01T04:24:44.952Z,1014.53
2022-09-01T04:25:11.962Z,1014.53
2022-09-01T04:25:34.676Z,1014.73
2022-09-01T04:25:59.911Z,1014.73
2022-09-01T04:26:33.105Z,1014.73
2022-09-01T04:27:04.675Z,1014.63
2022-09-01T04:27:34.894Z,1014.73
2022-09-01T04:28:07.885Z,1014.73
2022-09-01T04:28:34.719Z,1014.42
2022-09-01T04:28:56.209Z,1014.42
2022-09-01T04:29:28.535Z,1014.42
2022-09-01T04:29:59.932Z,1014.53
2022-09-01T04:30:33.246Z,1014.53
2022-09-01T04:31:04.163Z,1014.53
2022-09-01T04:31:34.845Z,1014.63
2022-09-01T04:31:52.437Z,1014.63
2022-09-01T04:32:24.267Z,1014.63
2022-09-01T04:32:40.932Z,1014.53
2022-09-01T04:33:11.968Z,1014.53
2022-09-01T04:33:35.422Z,1014.42
2022-09-01T04:33:59.932Z,1014.42
2022-09-01T04:34:33.131Z,1014.42
2022-09-01T04:35:06.968Z,1014.63
2022-09-01T04:35:36.243Z,1014.63
2022-09-01T04:35:51.947Z,1014.63
2022-09-01T04:36:24.144Z,1014.63
2022-09-01T04:36:41.268Z,1014.53
2022-09-01T04:37:12.182Z,1014.53
2022-09-01T04:37:34.680Z,1014.42
2022-09-01T04:38:00.072Z,1014.42
2022-09-01T04:38:32.330Z,1014.42
2022-09-01T04:39:04.410Z,1014.63
2022-09-01T04:39:35.616Z,1014.42
2022-09-01T04:40:08.555Z,1014.42
2022-09-01T04:40:34.804Z,1014.63
2022-09-01T04:40:55.823Z,1014.63
2022-09-01T04:41:29.267Z,1014.63
2022-09-01T04:41:59.933Z,1014.63
2022-09-01T04:42:32.263Z,1014.63
2022-09-01T04:43:04.310Z,1014.83
2022-09-01T04:43:35.333Z,1014.53
2022-09-01T04:43:52.107Z,1014.53
2022-09-01T04:44:24.241Z,1014.53
2022-09-01T04:44:41.867Z,1014.63
2022-09-01T04:45:14.632Z,1014.63
2022-09-01T04:45:35.865Z,1014.83
2022-09-01T04:46:00.009Z,1014.83
2022-09-01T04:46:33.253Z,1014.83
2022-09-01T04:47:04.914Z,1014.42
2022-09-01T04:47:36.245Z,1014.53
2022-09-01T04:47:52.199Z,1014.53
2022-09-01T04:48:24.292Z,1014.53
2022-09-01T04:48:41.386Z,1014.73
2022-09-01T04:49:13.334Z,1014.73
2022-09-01T04:49:34.873Z,1014.42
2022-09-01T04:50:00.332Z,1014.42
2022-09-01T04:50:33.655Z,1014.42
2022-09-01T04:51:04.531Z,1014.83
2022-09-01T04:51:35.052Z,1014.73
2022-09-01T04:52:08.121Z,1014.73
2022-09-01T04:52:35.287Z,1014.63
2022-09-01T04:52:57.875Z,1014.63
2022-09-01T04:53:28.731Z,1014.63
2022-09-01T04:54:00.093Z,1014.83
2022-09-01T04:54:32.449Z,1014.83
2022-09-01T04:55:04.844Z,1014.63
2022-09-01T04:55:36.195Z,1014.63
2022-09-01T04:56:08.267Z,1014.63
2022-09-01T04:56:35.165Z,1014.73
2022-09-01T04:56:57.866Z,1014.73
2022-09-01T04:57:28.080Z,1014.73
2022-09-01T04:58:00.339Z,1014.83
2022-09-01T04:58:34.334Z,1014.83
2022-09-01T04:59:04.688Z,1014.63
2022-09-01T04:59:35.188Z,1014.73
2022-09-01T05:00:09.316Z,1014.73
2022-09-01T05:00:36.307Z,1014.53
2022-09-01T05:00:56.733Z,1014.53
2022-09-01T05:01:28.561Z,1014.53
2022-09-01T05:02:01.425Z,1014.73
2022-09-01T05:02:32.367Z,1014.73
2022-09-01T05:03:05.487Z,1014.73
2022-09-01T05:03:35.199Z,1014.83
2022-09-01T05:03:52.628Z,1014.83
2022-09-01T05:04:24.521Z,1014.83
2022-09-01T05:04:41.100Z,1014.73
2022-09-01T05:05:14.113Z,1014.73
2022-09-01T05:05:35.650Z,1014.83
2022-09-01T05:06:01.209Z,1014.83
2022-09-01T05:06:32.032Z,1014.83
2022-09-01T05:07:04.620Z,1014.73
2022-09-01T05:07:34.900Z,1014.63
2022-09-01T05:07:52.174Z,1014.63
2022-09-01T05:08:24.806Z,1014.63
2022-09-01T05:08:41.187Z,1014.83
2022-09-01T05:09:12.127Z,1014.83
2022-09-01T05:09:35.686Z,1014.73
2022-09-01T05:10:01.441Z,1014.73
2022-09-01T05:10:33.608Z,1014.73
2022-09-01T05:11:04.491Z,1014.73
2022-09-01T05:11:34.964Z,1014.63
2022-09-01T05:11:52.144Z,1014.63
2022-09-01T05:12:24.395Z,1014.63
2022-09-01T05:12:42.053Z,1014.73
2022-09-01T05:13:14.499Z,1014.73
2022-09-01T05:13:34.974Z,1014.73
2022-09-01T05:14:00.068Z,1014.73
2022-09-01T05:14:32.120Z,1014.73
2022-09-01T05:15:04.634Z,1014.73
2022-09-01T05:15:37.281Z,1014.63
2022-09-01T05:16:09.043Z,1014.63
2022-09-01T05:16:35.054Z,1014.83
2022-09-01T05:16:56.117Z,1014.83
2022-09-01T05:17:28.022Z,1014.83
2022-09-01T05:18:00.269Z,1014.63
2022-09-01T05:18:32.260Z,1014.63
2022-09-01T05:19:05.056Z,1014.63
2022-09-01T05:19:35.793Z,1014.53
2022-09-01T05:20:08.400Z,1014.53
2022-09-01T05:20:35.965Z,1014.63
2022-09-01T05:20:56.117Z,1014.63
2022-09-01T05:21:28.026Z,1014.63
2022-09-01T05:22:00.191Z,1014.73
2022-09-01T05:22:33.542Z,1014.73
2022-09-01T05:23:04.695Z,1014.83
2022-09-01T05:23:34.918Z,1014.83
2022-09-01T05:23:52.390Z,1014.83
2022-09-01T05:24:24.354Z,1014.83
2022-09-01T05:24:42.492Z,1014.73
2022-09-01T05:25:12.261Z,1014.73
2022-09-01T05:25:34.966Z,1014.83
2022-09-01T05:26:00.159Z,1014.83
2022-09-01T05:26:32.152Z,1014.83
2022-09-01T05:27:04.947Z,1014.63
2022-09-01T05:27:34.931Z,1014.73
2022-09-01T05:27:52.435Z,1014.73
2022-09-01T05:28:24.447Z,1014.73
2022-09-01T05:28:41.241Z,1014.53
2022-09-01T05:29:12.252Z,1014.53
2022-09-01T05:29:35.800Z,1014.42
2022-09-01T05:30:00.392Z,1014.42
2022-09-01T05:30:34.660Z,1014.42
2022-09-01T05:31:04.555Z,1014.73
2022-09-01T05:31:36.658Z,1014.63
2022-09-01T05:32:08.206Z,1014.63
2022-09-01T05:32:35.008Z,1014.63
2022-09-01T05:32:56.278Z,1014.63
2022-09-01T05:33:28.195Z,1014.63
2022-09-01T05:34:00.192Z,1014.73
2022-09-01T05:34:32.278Z,1014.73
2022-09-01T05:35:04.765Z,1014.63
2022-09-01T05:35:38.338Z,1014.73
2022-09-01T05:36:08.086Z,1014.73
2022-09-01T05:36:35.404Z,1014.83
2022-09-01T05:36:56.181Z,1014.83
2022-09-01T05:37:28.094Z,1014.83
2022-09-01T05:38:00.182Z,1014.73
2022-09-01T05:38:32.023Z,1014.73
2022-09-01T05:39:04.715Z,1014.83
2022-09-01T05:39:35.569Z,1015.03
2022-09-01T05:39:52.110Z,1015.03
2022-09-01T05:40:26.057Z,1015.03
2022-09-01T05:40:43.866Z,1014.83
2022-09-01T05:41:11.972Z,1014.83
2022-09-01T05:41:35.284Z,1014.83